Time;durP1;ratioP1;P1;durP2;ratioP2;P2;SDS_P1;SDS_P2;PMS_P1;PMS_P2;Temp;Humidity;BMP_temperature;BMP_pressure;BME280_temperature;BME280_humidity;BME280_pressure;Samples;Min_cycle;Max_cycle;Signal;HPM_P1;HPM_P2
2022/05/27 00:01:28;;;;;;;17.65;4.28;;;;;;;16.73;67.31;100754.25;4992702;28;119710;-76
2022/05/27 00:03:56;;;;;;;16.73;4.00;;;;;;;16.71;67.43;100742.91;4994892;28;120274;-75
2022/05/27 00:06:23;;;;;;;18.63;4.57;;;;;;;16.70;67.22;100748.94;5006795;28;121084;-75
2022/05/27 00:08:48;;;;;;;17.67;4.45;;;;;;;16.65;67.25;100747.59;4975313;28;119513;-74
2022/05/27 00:11:14;;;;;;;21.40;4.60;;;;;;;16.66;66.88;100754.69;4996152;28;119274;-74
2022/05/27 00:13:43;;;;;;;20.05;4.10;;;;;;;16.63;66.98;100752.13;5010237;27;120174;-74
2022/05/27 00:16:10;;;;;;;23.13;4.82;;;;;;;16.58;67.30;100759.13;4985199;28;119448;-75
2022/05/27 00:18:35;;;;;;;20.25;4.38;;;;;;;16.53;66.94;100766.13;4995697;28;119371;-74
2022/05/27 00:21:02;;;;;;;19.13;4.72;;;;;;;16.55;67.01;100768.41;5008748;28;119365;-75
2022/05/27 00:23:31;;;;;;;28.75;4.90;;;;;;;16.53;67.13;100768.13;4992879;28;119770;-74
2022/05/27 00:25:56;;;;;;;21.20;4.63;;;;;;;16.48;67.21;100772.38;4985941;28;120033;-74
2022/05/27 00:28:22;;;;;;;24.98;5.40;;;;;;;16.48;66.98;100780.66;4993704;28;119347;-73
2022/05/27 00:30:48;;;;;;;22.05;4.63;;;;;;;16.47;67.08;100776.38;5012340;28;118956;-74
2022/05/27 00:33:14;;;;;;;17.40;4.78;;;;;;;16.45;66.81;100773.34;4992571;28;121892;-74
2022/05/27 00:35:39;;;;;;;20.92;4.20;;;;;;;16.42;66.68;100768.78;5004815;28;119598;-76
2022/05/27 00:38:06;;;;;;;19.48;4.55;;;;;;;16.37;66.92;100765.97;5004583;28;119638;-77
2022/05/27 00:40:41;;;;;;;20.38;4.85;;;;;;;16.37;66.71;100772.28;5014513;28;120075;-75
2022/05/27 00:43:07;;;;;;;21.98;4.40;;;;;;;16.35;66.69;100762.94;5006716;28;119830;-73
2022/05/27 00:45:37;;;;;;;19.95;4.50;;;;;;;16.34;66.44;100762.19;4993057;28;122329;-74
2022/05/27 00:48:06;;;;;;;24.25;4.93;;;;;;;16.34;66.20;100770.47;4994359;28;119773;-74
2022/05/27 00:50:40;;;;;;;19.25;4.85;;;;;;;16.28;66.66;100764.09;5012293;28;119310;-75
2022/05/27 00:53:09;;;;;;;23.45;4.88;;;;;;;16.27;66.65;100759.81;5011423;27;120011;-74
2022/05/27 00:55:43;;;;;;;16.80;4.47;;;;;;;16.24;66.76;100760.78;5012394;28;119401;-75
2022/05/27 00:58:13;;;;;;;30.45;4.88;;;;;;;16.26;66.59;100769.38;5010777;28;119661;-76
2022/05/27 01:00:39;;;;;;;27.23;4.93;;;;;;;16.21;66.48;100762.53;5010860;28;120051;-74
2022/05/27 01:03:07;;;;;;;21.90;4.57;;;;;;;16.22;66.73;100771.59;4997670;28;119846;-75
2022/05/27 01:05:33;;;;;;;20.55;4.55;;;;;;;16.20;66.49;100763.03;5011625;28;119858;-75
2022/05/27 01:08:05;;;;;;;23.02;4.53;;;;;;;16.20;66.42;100768.56;5010923;28;119354;-74
2022/05/27 01:10:45;;;;;;;19.25;4.63;;;;;;;16.17;65.79;100775.06;4975238;28;120625;-74
2022/05/27 01:13:12;;;;;;;19.40;4.47;;;;;;;16.12;66.36;100771.00;5010984;28;120082;-74
2022/05/27 01:15:37;;;;;;;14.93;3.97;;;;;;;16.10;66.13;100772.75;4994130;28;119640;-75
2022/05/27 01:20:18;;;;;;;17.95;4.28;;;;;;;16.08;65.50;100773.19;5004562;28;120009;-76
2022/05/27 01:21:16;;;;;;;19.92;4.53;;;;;;;16.06;66.19;100772.94;4994122;28;121734;-74
2022/05/27 01:24:01;;;;;;;20.00;4.25;;;;;;;16.07;66.35;100782.00;4993928;28;119667;-74
2022/05/27 01:26:29;;;;;;;;;;;;;;;16.01;65.92;100783.94;5015558;28;121129;-74
2022/05/27 01:29:35;;;;;;;17.50;4.10;;;;;;;15.97;66.15;100795.22;5009428;28;119734;-74
2022/05/27 01:32:31;;;;;;;17.65;4.15;;;;;;;15.95;66.02;100801.22;4999366;27;119376;-76
2022/05/27 01:35:21;;;;;;;19.95;3.80;;;;;;;15.93;66.45;100797.44;5006794;28;120212;-74
2022/05/27 01:37:56;;;;;;;16.25;4.10;;;;;;;15.86;66.41;100795.84;4977320;28;119342;-74
2022/05/27 01:40:54;;;;;;;16.98;3.60;;;;;;;15.89;66.11;100794.13;4984575;28;121032;-75
2022/05/27 01:43:45;;;;;;;23.38;4.63;;;;;;;15.85;66.18;100802.63;4999100;28;119876;-74
2022/05/27 01:46:15;;;;;;;17.58;3.97;;;;;;;15.83;66.11;100802.31;5010514;28;119347;-74
2022/05/27 01:49:04;;;;;;;21.92;4.20;;;;;;;15.80;66.11;100797.75;4993236;28;121002;-74
2022/05/27 01:51:34;;;;;;;23.35;3.78;;;;;;;15.80;66.38;100794.25;4980312;28;123059;-75
2022/05/27 01:54:09;;;;;;;20.65;4.18;;;;;;;15.80;65.64;100803.28;5010983;28;119347;-74
2022/05/27 01:56:47;;;;;;;22.20;4.15;;;;;;;15.77;65.13;100795.97;4992065;28;120066;-75
2022/05/27 01:59:27;;;;;;;15.25;3.58;;;;;;;15.75;65.13;100800.47;4992185;28;119564;-76
2022/05/27 02:02:02;;;;;;;17.35;4.25;;;;;;;15.70;65.14;100796.38;4993222;28;119424;-75
2022/05/27 02:04:41;;;;;;;18.45;4.35;;;;;;;15.70;65.66;100801.16;5009903;28;119419;-74
2022/05/27 02:07:19;;;;;;;18.73;3.95;;;;;;;15.68;65.50;100807.16;4993451;28;119312;-74
2022/05/27 02:09:54;;;;;;;18.95;4.25;;;;;;;15.64;65.48;100804.63;5009026;28;119886;-74
2022/05/27 02:12:26;;;;;;;19.02;3.88;;;;;;;15.62;65.98;100803.56;4985882;28;119862;-75
2022/05/27 02:14:58;;;;;;;21.42;3.97;;;;;;;15.61;65.63;100807.56;5014015;28;119822;-74
2022/05/27 02:17:32;;;;;;;24.67;4.72;;;;;;;15.59;64.97;100808.03;4991814;28;119881;-75
2022/05/27 02:20:04;;;;;;;20.88;4.18;;;;;;;15.56;65.05;100808.22;5006947;28;119518;-74
2022/05/27 02:22:38;;;;;;;21.10;4.57;;;;;;;15.54;64.95;100813.47;5007533;28;119604;-74
2022/05/27 02:25:14;;;;;;;21.70;4.32;;;;;;;15.50;64.83;100818.44;4990595;28;119887;-74
2022/05/27 02:27:39;;;;;;;25.42;4.63;;;;;;;15.46;64.68;100817.88;5009246;28;119695;-76
2022/05/27 02:30:12;;;;;;;21.25;4.43;;;;;;;15.44;64.47;100812.09;4989310;28;121216;-74
2022/05/27 02:35:07;;;;;;;24.48;4.75;;;;;;;15.40;64.44;100806.75;4994323;28;120059;-75
2022/05/27 02:35:41;;;;;;;22.92;5.25;;;;;;;15.37;64.75;100815.97;5007264;28;119621;-75
2022/05/27 02:38:08;;;;;;;21.50;4.53;;;;;;;15.36;65.00;100814.47;4988759;28;120269;-74
2022/05/27 02:40:42;;;;;;;26.80;5.03;;;;;;;15.34;65.07;100822.47;5006697;28;119582;-74
2022/05/27 02:43:16;;;;;;;21.02;4.30;;;;;;;15.32;64.90;100811.91;5010085;28;119813;-75
2022/05/27 02:46:02;;;;;;;21.52;4.40;;;;;;;15.33;64.80;100821.72;5010237;28;120115;-74
2022/05/27 02:49:03;;;;;;;25.40;4.85;;;;;;;15.32;65.22;100825.72;5009736;28;119784;-74
2022/05/27 02:51:38;;;;;;;24.00;4.43;;;;;;;15.32;64.93;100830.50;4935996;28;119524;-78
2022/05/27 02:54:09;;;;;;;20.20;4.15;;;;;;;15.31;64.88;100832.50;5003685;27;120783;-75
2022/05/27 02:56:48;;;;;;;26.25;4.47;;;;;;;15.32;65.02;100833.25;4998356;28;119762;-76
2022/05/27 02:59:17;;;;;;;21.90;4.15;;;;;;;15.30;65.09;100825.44;5016989;28;119901;-76
2022/05/27 03:01:46;;;;;;;25.15;4.88;;;;;;;15.32;64.94;100833.25;5009611;28;120156;-75
2022/05/27 03:04:14;;;;;;;29.58;4.80;;;;;;;15.31;64.84;100842.78;5013627;27;119354;-76
2022/05/27 03:06:50;;;;;;;22.98;4.50;;;;;;;15.31;64.69;100840.03;5013015;28;121439;-76
2022/05/27 03:09:37;;;;;;;19.40;4.80;;;;;;;15.29;64.49;100834.22;4995112;28;119640;-76
2022/05/27 03:12:36;;;;;;;24.98;4.25;;;;;;;15.25;64.08;100834.41;5011580;28;119957;-75
2022/05/27 03:15:26;;;;;;;26.92;4.70;;;;;;;15.20;64.45;100835.09;5011412;28;119341;-76
2022/05/27 03:18:19;;;;;;;28.30;4.82;;;;;;;15.19;64.61;100832.81;4988412;28;119723;-76
2022/05/27 03:20:57;;;;;;;20.77;4.90;;;;;;;15.21;64.32;100835.84;5000509;28;119811;-76
2022/05/27 03:23:54;;;;;;;25.58;5.05;;;;;;;15.20;63.91;100829.56;5016493;27;121207;-76
2022/05/27 03:26:33;;;;;;;27.23;4.35;;;;;;;15.20;64.17;100837.84;4994727;28;119907;-75
2022/05/27 03:29:49;;;;;;;19.48;4.43;;;;;;;15.18;63.94;100832.06;5013417;28;119776;-75
2022/05/27 03:32:28;;;;;;;19.17;4.28;;;;;;;15.14;63.88;100825.97;4991085;27;120006;-76
2022/05/27 03:35:06;;;;;;;21.50;4.40;;;;;;;15.14;63.72;100836.22;5013075;28;120398;-76
2022/05/27 03:37:43;;;;;;;28.90;5.20;;;;;;;15.13;64.24;100841.00;5001634;28;119520;-75
2022/05/27 03:40:14;;;;;;;26.45;5.00;;;;;;;15.13;63.97;100840.22;4994526;28;119456;-77
2022/05/27 03:42:41;;;;;;;24.98;4.75;;;;;;;15.14;64.08;100842.53;5012973;28;120279;-75
2022/05/27 03:45:15;;;;;;;25.77;4.97;;;;;;;15.13;64.51;100835.47;5004065;28;119392;-76
2022/05/27 03:47:41;;;;;;;27.10;5.13;;;;;;;15.16;64.37;100842.06;4995568;28;120404;-73
2022/05/27 03:50:10;;;;;;;26.80;4.78;;;;;;;15.18;64.32;100836.81;5009370;28;119888;-78
2022/05/27 03:52:42;;;;;;;26.40;4.78;;;;;;;15.17;63.96;100833.28;4994164;28;120127;-76
2022/05/27 03:55:10;;;;;;;26.13;5.32;;;;;;;15.19;64.18;100833.56;5011645;28;119277;-77
2022/05/27 03:57:36;;;;;;;27.13;5.22;;;;;;;15.22;63.92;100840.13;4976933;28;120117;-76
2022/05/27 04:00:04;;;;;;;22.63;4.45;;;;;;;15.24;64.19;100840.41;5010461;28;119446;-76
2022/05/27 04:02:38;;;;;;;21.95;4.97;;;;;;;15.27;63.68;100848.50;5006621;27;119613;-77
2022/05/27 04:05:05;;;;;;;25.75;5.40;;;;;;;15.31;63.90;100831.72;5012221;28;119924;-76
2022/05/27 04:07:31;;;;;;;27.48;4.93;;;;;;;15.32;63.77;100831.25;4993816;28;119625;-77
2022/05/27 04:09:56;;;;;;;22.85;4.60;;;;;;;15.34;63.83;100834.28;5014602;28;119438;-76
2022/05/27 04:12:22;;;;;;;20.55;4.32;;;;;;;15.39;64.13;100840.41;5012625;28;120457;-76
2022/05/27 04:14:52;;;;;;;30.73;5.07;;;;;;;15.40;64.55;100836.41;4978324;28;121875;-76
2022/05/27 04:17:30;;;;;;;26.45;4.95;;;;;;;15.41;63.77;100840.69;5010864;28;119892;-75
2022/05/27 04:20:01;;;;;;;22.40;4.65;;;;;;;15.42;63.41;100842.97;5012637;27;119754;-75
2022/05/27 04:22:27;;;;;;;27.27;5.30;;;;;;;15.44;63.19;100831.44;5012607;27;119413;-76
2022/05/27 04:24:53;;;;;;;30.08;5.75;;;;;;;15.46;64.05;100840.00;5011132;28;119328;-76
2022/05/27 04:27:20;;;;;;;23.65;4.50;;;;;;;15.52;63.55;100835.31;4993714;28;119326;-78
2022/05/27 04:29:48;;;;;;;24.23;5.15;;;;;;;15.51;63.29;100825.50;4991865;28;120036;-76
2022/05/27 04:32:15;;;;;;;25.80;4.75;;;;;;;15.55;63.31;100831.59;4976721;28;120809;-76
2022/05/27 04:34:43;;;;;;;20.10;5.03;;;;;;;15.57;63.57;100842.91;4991191;28;119871;-76
2022/05/27 04:37:10;;;;;;;25.83;4.07;;;;;;;15.57;64.25;100840.91;4992120;28;119845;-76
2022/05/27 04:39:36;;;;;;;22.30;4.25;;;;;;;15.62;63.55;100832.00;5009900;28;119697;-76
2022/05/27 04:42:02;;;;;;;25.90;5.20;;;;;;;15.66;63.17;100837.31;4993955;27;120360;-75
2022/05/27 04:44:27;;;;;;;26.02;5.20;;;;;;;15.65;63.68;100833.03;5009603;28;119861;-76
2022/05/27 04:46:53;;;;;;;26.13;4.30;;;;;;;15.67;62.92;100835.31;4978231;28;119515;-76
2022/05/27 04:52:03;;;;;;;;;;;;;;;15.71;63.42;100838.63;4998882;28;121408;-73
2022/05/27 04:54:29;;;;;;;24.50;4.60;;;;;;;15.75;62.80;100830.88;4994806;28;120870;-75
2022/05/27 04:56:56;;;;;;;22.27;4.45;;;;;;;15.75;62.46;100834.41;4994002;28;119986;-76
2022/05/27 04:59:23;;;;;;;22.73;4.60;;;;;;;15.78;63.44;100830.69;4993736;28;119376;-76
2022/05/27 05:01:48;;;;;;;21.30;4.63;;;;;;;15.79;63.34;100829.44;4993297;28;119684;-76
2022/05/27 05:04:15;;;;;;;26.17;4.50;;;;;;;15.80;63.12;100828.19;4993741;28;119908;-76
2022/05/27 05:06:41;;;;;;;20.48;4.38;;;;;;;15.79;62.58;100829.44;5012392;27;119702;-75
2022/05/27 05:09:07;;;;;;;17.98;4.95;;;;;;;15.81;62.70;100837.25;4993546;28;120379;-75
2022/05/27 05:11:33;;;;;;;24.02;4.10;;;;;;;15.81;62.57;100840.78;5011726;28;119912;-76
2022/05/27 05:13:59;;;;;;;26.42;4.75;;;;;;;15.84;62.95;100842.56;4998385;28;119249;-75
2022/05/27 05:16:25;;;;;;;26.50;4.72;;;;;;;15.88;62.38;100842.38;5010781;28;119867;-77
2022/05/27 05:18:53;;;;;;;23.85;4.68;;;;;;;15.87;62.10;100836.09;5010680;28;119637;-76
2022/05/27 05:21:18;;;;;;;21.33;4.60;;;;;;;15.93;61.61;100842.47;5012283;28;119294;-78
2022/05/27 05:23:44;;;;;;;22.45;4.72;;;;;;;15.94;61.75;100840.44;5011504;27;119274;-76
2022/05/27 05:26:10;;;;;;;23.08;4.80;;;;;;;15.98;62.24;100838.22;4983786;28;119490;-75
2022/05/27 05:28:36;;;;;;;20.40;4.47;;;;;;;15.98;62.04;100832.69;5004866;28;119356;-72
2022/05/27 05:31:02;;;;;;;19.92;4.38;;;;;;;16.03;61.80;100843.06;5010357;28;120115;-75
2022/05/27 05:33:28;;;;;;;22.35;4.50;;;;;;;16.05;62.38;100828.75;4993150;28;119621;-75
2022/05/27 05:35:54;;;;;;;24.75;4.95;;;;;;;16.08;61.98;100833.31;5014476;28;120141;-76
2022/05/27 05:38:20;;;;;;;25.80;4.55;;;;;;;16.10;61.83;100831.59;5010252;28;119795;-76
2022/05/27 05:40:47;;;;;;;23.60;5.07;;;;;;;16.13;61.47;100821.56;5009431;28;119534;-75
2022/05/27 05:43:15;;;;;;;22.90;4.75;;;;;;;16.09;61.31;100821.78;4992777;28;121363;-77
2022/05/27 05:45:41;;;;;;;19.45;5.00;;;;;;;16.13;61.97;100830.63;4990501;28;119814;-75
2022/05/27 05:48:07;;;;;;;25.45;4.78;;;;;;;16.20;62.04;100835.75;4992543;28;121538;-75
2022/05/27 05:50:33;;;;;;;27.38;5.70;;;;;;;16.21;60.42;100831.72;5010416;28;119838;-76
2022/05/27 05:52:59;;;;;;;30.08;5.15;;;;;;;16.23;60.01;100828.47;5010529;28;119598;-75
2022/05/27 05:55:26;;;;;;;30.80;5.55;;;;;;;16.25;60.18;100832.28;5009894;28;119999;-76
2022/05/27 05:57:52;;;;;;;23.05;4.70;;;;;;;16.25;60.43;100823.22;4999890;28;119793;-75
2022/05/27 06:00:27;;;;;;;23.40;4.57;;;;;;;16.27;59.50;100832.53;4992020;28;120350;-75
2022/05/27 06:02:53;;;;;;;20.58;4.60;;;;;;;16.28;60.19;100819.47;4990518;28;120177;-75
2022/05/27 06:05:20;;;;;;;26.85;5.40;;;;;;;16.31;58.82;100835.09;5003920;28;119407;-75
2022/05/27 06:07:46;;;;;;;26.92;5.55;;;;;;;16.31;58.48;100824.03;4990930;28;120095;-76
2022/05/27 06:10:16;;;;;;;28.80;5.47;;;;;;;16.28;58.13;100831.28;5008889;28;119966;-74
2022/05/27 06:12:42;;;;;;;23.20;5.07;;;;;;;16.28;57.54;100827.78;4991860;28;119538;-75
2022/05/27 06:15:11;;;;;;;24.98;5.07;;;;;;;16.28;57.98;100833.31;5005915;28;119462;-76
2022/05/27 06:17:37;;;;;;;27.55;5.43;;;;;;;16.30;58.38;100833.56;4995280;28;121329;-75
2022/05/27 06:20:05;;;;;;;30.05;5.47;;;;;;;16.33;58.74;100834.63;5020478;27;119830;-76
2022/05/27 06:22:31;;;;;;;25.33;5.30;;;;;;;16.35;58.27;100830.13;5007688;28;120094;-76
2022/05/27 06:24:58;;;;;;;27.52;5.35;;;;;;;16.36;57.33;100833.66;5009706;28;119660;-76
2022/05/27 06:27:25;;;;;;;20.20;4.70;;;;;;;16.33;57.04;100826.34;4989187;28;119466;-75
2022/05/27 06:35:19;;;;;;;22.58;5.32;;;;;;;16.37;57.11;100830.41;5002445;28;119800;-75
2022/05/27 06:37:45;;;;;;;18.92;4.20;;;;;;;16.39;57.67;100832.69;4992203;28;123192;-75
2022/05/27 06:40:11;;;;;;;24.10;5.07;;;;;;;16.46;56.41;100832.25;5010484;28;119229;-75
2022/05/27 06:42:37;;;;;;;23.15;4.60;;;;;;;16.47;57.46;100822.69;4995023;28;121595;-75
2022/05/27 06:45:06;;;;;;;20.17;4.53;;;;;;;16.53;57.78;100829.03;4996360;28;119490;-75
2022/05/27 06:47:32;;;;;;;25.90;5.68;;;;;;;16.58;56.89;100833.91;4990944;28;121695;-75
2022/05/27 06:49:57;;;;;;;24.52;4.78;;;;;;;16.60;55.93;100839.72;4990351;28;119771;-76
2022/05/27 06:52:24;;;;;;;23.33;4.80;;;;;;;16.63;55.46;100832.44;4991025;28;119391;-75
2022/05/27 06:54:51;;;;;;;22.35;4.68;;;;;;;16.65;54.65;100835.47;5009558;28;120467;-75
2022/05/27 06:57:16;;;;;;;24.10;4.75;;;;;;;16.62;54.62;100842.00;5018437;27;119359;-76
2022/05/27 06:59:42;;;;;;;17.80;4.50;;;;;;;16.58;52.74;100837.44;4992991;28;119453;-75
2022/05/27 07:02:09;;;;;;;20.25;4.68;;;;;;;16.57;52.29;100833.13;4975556;28;119481;-75
2022/05/27 07:04:35;;;;;;;22.00;4.43;;;;;;;16.53;52.29;100829.03;5008765;28;119558;-76
2022/05/27 07:07:03;;;;;;;23.65;4.80;;;;;;;16.51;52.22;100832.31;4997015;28;121043;-75
2022/05/27 07:09:30;;;;;;;22.50;4.88;;;;;;;16.54;52.30;100827.78;5008272;28;120091;-76
2022/05/27 07:11:55;;;;;;;19.85;4.45;;;;;;;16.56;53.85;100823.31;5006730;28;119736;-75
2022/05/27 07:14:21;;;;;;;21.13;4.15;;;;;;;16.63;55.22;100835.97;5000689;28;119701;-76
2022/05/27 07:16:49;;;;;;;19.50;4.47;;;;;;;16.69;54.32;100830.50;5002678;28;121837;-76
2022/05/27 07:19:17;;;;;;;20.08;4.47;;;;;;;16.77;53.50;100831.56;4942193;28;119380;-75
2022/05/27 07:21:44;;;;;;;22.67;4.35;;;;;;;16.84;54.10;100831.16;4992007;28;119527;-77
2022/05/27 07:24:13;;;;;;;20.25;4.15;;;;;;;16.85;53.88;100829.91;5010699;28;119940;-75
2022/05/27 07:26:41;;;;;;;19.65;4.70;;;;;;;16.86;52.98;100828.66;4995785;28;119617;-75
2022/05/27 07:29:07;;;;;;;16.45;4.55;;;;;;;16.83;53.05;100830.41;5005558;27;120239;-75
2022/05/27 07:31:37;;;;;;;16.83;3.92;;;;;;;16.85;54.00;100838.97;5004516;28;119666;-75
2022/05/27 07:34:03;;;;;;;16.30;3.92;;;;;;;16.85;54.66;100821.59;4991434;28;121053;-75
2022/05/27 07:36:31;;;;;;;19.73;3.78;;;;;;;16.88;54.05;100829.69;5005602;28;119579;-75
2022/05/27 07:38:57;;;;;;;21.55;4.03;;;;;;;16.91;53.46;100827.19;5012602;28;119237;-75
2022/05/27 07:41:27;;;;;;;17.17;3.53;;;;;;;16.93;52.69;100835.75;4979166;28;121884;-75
2022/05/27 07:43:53;;;;;;;18.90;4.00;;;;;;;16.96;53.36;100827.22;5004592;27;121719;-75
2022/05/27 07:46:22;;;;;;;16.30;3.85;;;;;;;17.07;53.56;100821.78;5017002;28;119497;-75
2022/05/27 07:48:47;;;;;;;17.10;4.07;;;;;;;17.17;53.29;100814.78;4989327;28;120780;-75
2022/05/27 07:51:13;;;;;;;20.33;4.78;;;;;;;17.25;52.59;100826.19;5012117;28;119709;-75
2022/05/27 07:53:39;;;;;;;18.60;3.97;;;;;;;17.29;52.34;100810.09;4994730;28;119426;-75
2022/05/27 07:56:06;;;;;;;25.48;4.70;;;;;;;17.30;51.74;100814.38;4994393;28;121715;-76
2022/05/27 07:58:33;;;;;;;17.00;4.43;;;;;;;17.39;52.42;100813.44;4994251;28;119702;-75
2022/05/27 08:00:59;;;;;;;22.13;4.60;;;;;;;17.45;52.42;100814.22;5008595;28;119973;-75
2022/05/27 08:03:25;;;;;;;19.67;4.57;;;;;;;17.49;52.75;100811.97;5010629;27;119858;-75
2022/05/27 08:05:51;;;;;;;22.38;5.10;;;;;;;17.56;53.15;100805.97;4995395;28;119348;-75
2022/05/27 08:08:19;;;;;;;17.98;4.00;;;;;;;17.63;53.02;100821.38;5016408;28;120423;-75
2022/05/27 08:10:45;;;;;;;21.80;4.25;;;;;;;17.62;52.29;100823.41;5008776;28;120397;-75
2022/05/27 08:13:11;;;;;;;24.50;4.70;;;;;;;17.57;51.20;100838.00;5009268;28;119974;-76
2022/05/27 08:15:37;;;;;;;14.88;3.05;;;;;;;17.48;51.69;100816.75;4998008;28;121475;-75
2022/05/27 08:18:03;;;;;;;11.00;2.80;;;;;;;17.53;50.76;100828.41;4991911;28;119768;-75
2022/05/27 08:20:31;;;;;;;8.55;2.80;;;;;;;17.59;49.83;100815.31;5011286;28;119531;-74
2022/05/27 08:22:58;;;;;;;9.63;2.65;;;;;;;17.67;50.06;100822.69;5010991;27;119272;-75
2022/05/27 08:25:28;;;;;;;11.45;2.80;;;;;;;17.75;50.66;100829.31;4981634;28;119600;-76
2022/05/27 08:27:54;;;;;;;11.63;2.15;;;;;;;17.84;51.12;100808.16;5012103;27;119642;-76
2022/05/27 08:30:28;;;;;;;9.02;2.30;;;;;;;17.93;50.81;100817.03;5014317;28;119721;-77
2022/05/27 08:32:55;;;;;;;11.63;2.70;;;;;;;18.04;49.64;100813.56;5004795;28;120021;-75
2022/05/27 08:38:10;;;;;;;;;;;;;;;18.19;50.48;100810.56;4994262;28;119811;-77
2022/05/27 08:41:16;;;;;;;17.70;3.78;;;;;;;18.28;50.22;100816.66;4998111;27;120389;-78
2022/05/27 08:44:21;;;;;;;15.82;3.38;;;;;;;18.33;49.54;100809.59;4995495;28;122089;-75
2022/05/27 08:47:08;;;;;;;18.23;3.80;;;;;;;18.48;50.04;100815.72;4934714;28;120227;-77
2022/05/27 08:49:39;;;;;;;17.88;3.63;;;;;;;18.63;49.68;100815.50;4982924;28;119433;-77
2022/05/27 08:52:13;;;;;;;16.25;3.95;;;;;;;18.72;49.63;100808.94;5004069;28;119927;-74
2022/05/27 08:54:44;;;;;;;15.10;3.30;;;;;;;18.78;48.72;100812.47;5015766;28;119804;-76
2022/05/27 09:00:27;;;;;;;15.57;3.90;;;;;;;18.84;49.40;100794.53;4929879;28;121219;-78
2022/05/27 09:03:01;;;;;;;15.63;3.97;;;;;;;18.89;49.35;100787.47;4929586;28;120562;-75
2022/05/27 09:05:44;;;;;;;17.88;3.85;;;;;;;18.89;49.83;100804.91;4967662;28;119959;-76
2022/05/27 09:08:23;;;;;;;24.35;4.85;;;;;;;18.75;50.78;100850.38;5002941;28;119521;-75
2022/05/27 09:10:55;;;;;;;17.77;3.60;;;;;;;18.46;53.17;100851.56;5008982;28;119279;-75
2022/05/27 09:13:45;;;;;;;19.35;3.47;;;;;;;18.02;55.00;100843.81;5010998;28;120124;-75
2022/05/27 09:16:38;;;;;;;18.17;3.85;;;;;;;17.53;55.89;100840.25;5015683;28;119765;-75
2022/05/27 09:19:23;;;;;;;21.92;4.07;;;;;;;17.21;57.38;100855.38;5004438;28;119606;-77
2022/05/27 09:22:19;;;;;;;16.80;3.70;;;;;;;16.89;57.98;100852.59;4995494;28;119654;-75
2022/05/27 09:24:56;;;;;;;19.65;3.50;;;;;;;16.64;57.55;100834.72;4975044;28;122026;-75
2022/05/27 09:28:06;;;;;;;14.15;3.45;;;;;;;16.45;59.20;100839.78;4993757;28;122841;-76
2022/05/27 09:50:31;;;;;;;18.42;3.40;;;;;;;15.98;61.74;100841.00;1431847;26;121100;-84
2022/05/27 09:52:58;;;;;;;15.25;3.63;;;;;;;15.93;62.81;100848.00;4943391;28;121042;-85
2022/05/27 09:55:42;;;;;;;13.70;2.72;;;;;;;15.98;62.51;100851.31;4951855;28;123314;-86
2022/05/27 09:58:08;;;;;;;;;;;;;;;16.01;62.17;100842.03;4952376;28;119640;-84
2022/05/27 10:00:41;;;;;;;15.70;3.42;;;;;;;16.05;63.30;100828.75;4965282;28;121484;-86
2022/05/27 10:03:25;;;;;;;17.60;3.60;;;;;;;16.30;63.54;100838.34;4943716;28;123005;-85
2022/05/27 10:06:08;;;;;;;16.08;3.55;;;;;;;16.50;64.05;100852.16;4947900;28;120389;-86
2022/05/27 10:08:39;;;;;;;29.90;4.80;;;;;;;16.64;62.70;100845.03;4964262;28;119932;-86
2022/05/27 10:11:16;;;;;;;24.55;4.78;;;;;;;16.68;62.97;100862.22;4974758;28;121090;-85
2022/05/27 10:13:43;;;;;;;22.23;4.93;;;;;;;16.57;62.05;100847.00;4942272;28;122056;-86
2022/05/27 10:16:13;;;;;;;25.48;4.88;;;;;;;16.54;61.97;100859.00;4968108;28;120523;-85
2022/05/27 10:18:41;;;;;;;22.92;4.35;;;;;;;16.48;62.69;100863.75;4969846;28;120122;-85
2022/05/27 10:21:14;;;;;;;17.50;3.47;;;;;;;16.42;61.97;100854.63;4942682;28;122544;-85
2022/05/27 10:23:43;;;;;;;15.27;3.27;;;;;;;16.32;63.21;100833.84;4960786;28;121692;-85
2022/05/27 10:26:34;;;;;;;16.50;3.63;;;;;;;16.44;63.38;100854.13;4936253;28;120115;-86
2022/05/27 10:29:15;;;;;;;21.92;3.95;;;;;;;16.53;63.49;100840.88;4944978;28;122552;-85
2022/05/27 10:31:50;;;;;;;21.77;4.63;;;;;;;16.61;63.25;100832.16;4963256;28;120958;-85
2022/05/27 10:34:39;;;;;;;19.92;3.92;;;;;;;16.68;63.31;100843.59;4963790;28;120463;-86
2022/05/27 10:37:07;;;;;;;18.10;4.40;;;;;;;16.67;62.88;100824.69;4960194;28;120516;-86
2022/05/27 10:40:00;;;;;;;22.67;4.40;;;;;;;16.74;62.65;100825.00;4955703;28;119731;-84
2022/05/27 10:42:51;;;;;;;19.85;4.65;;;;;;;16.76;63.06;100813.44;4949390;28;122692;-85
2022/05/27 10:45:33;;;;;;;25.27;5.00;;;;;;;16.91;61.81;100827.19;4943981;28;120223;-87
2022/05/27 10:48:21;;;;;;;17.08;3.78;;;;;;;16.93;61.65;100855.91;4949374;28;119602;-86
2022/05/27 10:51:14;;;;;;;12.13;2.47;;;;;;;16.75;59.43;100845.16;4951246;28;119943;-86
2022/05/27 10:53:58;;;;;;;11.93;2.80;;;;;;;16.44;60.25;100837.50;4985521;28;120934;-86
2022/05/27 10:56:42;;;;;;;10.07;2.85;;;;;;;16.47;61.38;100856.69;4982180;28;121419;-86
2022/05/27 11:02:37;;;;;;;15.52;2.70;;;;;;;16.40;62.31;100836.97;4977555;28;119640;-86
2022/05/27 11:05:21;;;;;;;14.43;3.08;;;;;;;16.50;60.68;100830.78;4971905;28;122469;-86
2022/05/27 11:08:12;;;;;;;15.00;2.95;;;;;;;16.55;61.52;100832.09;4950160;28;120216;-86
2022/05/27 11:10:53;;;;;;;12.35;2.92;;;;;;;16.56;61.22;100834.38;4952992;28;120003;-85
2022/05/27 11:16:45;;;;;;;11.85;2.22;;;;;;;16.81;60.96;100834.91;4967114;28;123362;-85
2022/05/27 11:19:45;;;;;;;12.05;2.47;;;;;;;16.92;59.69;100842.53;4967529;28;119803;-86
2022/05/27 11:22:37;;;;;;;15.27;3.25;;;;;;;16.95;59.78;100842.31;4956791;28;122695;-85
2022/05/27 11:25:12;;;;;;;14.48;2.67;;;;;;;16.98;58.91;100835.03;4988423;28;120523;-86
2022/05/27 11:28:10;;;;;;;11.45;2.53;;;;;;;16.87;59.41;100816.31;4959973;28;122547;-86
2022/05/27 11:30:58;;;;;;;19.35;3.90;;;;;;;17.00;58.43;100827.75;4938628;28;120215;-85
2022/05/27 11:33:46;;;;;;;17.67;3.45;;;;;;;17.03;59.05;100832.31;4971862;28;119619;-85
2022/05/27 11:36:46;;;;;;;18.95;3.15;;;;;;;17.07;59.43;100824.56;4958172;28;122463;-84
2022/05/27 11:39:20;;;;;;;20.08;3.90;;;;;;;17.11;58.32;100822.31;4952249;28;122872;-86
2022/05/27 11:42:01;;;;;;;17.80;3.45;;;;;;;17.05;58.05;100885.25;4949012;28;119824;-86
2022/05/27 11:44:53;;;;;;;7.45;2.17;;;;;;;16.99;56.92;100884.41;4955686;28;122619;-84
2022/05/27 11:47:40;;;;;;;8.00;2.35;;;;;;;16.65;57.48;100891.63;4956948;28;120552;-85
2022/05/27 11:50:18;;;;;;;9.95;2.45;;;;;;;16.41;58.33;100889.09;4951592;28;119727;-85
2022/05/27 11:52:52;;;;;;;10.95;2.20;;;;;;;16.17;58.60;100886.53;4954861;28;123312;-86
2022/05/27 11:55:33;;;;;;;8.23;1.83;;;;;;;15.96;59.14;100882.97;4977979;28;119863;-86
2022/05/27 11:58:20;;;;;;;10.88;2.47;;;;;;;15.84;59.63;100886.81;4972236;28;122687;-86
2022/05/27 12:00:54;;;;;;;14.57;2.20;;;;;;;15.68;60.53;100873.53;4974744;28;119955;-85
2022/05/27 12:03:36;;;;;;;;;;;;;;;15.72;60.60;100887.16;4958810;28;120208;-87
2022/05/27 12:06:15;;;;;;;16.38;2.50;;;;;;;15.77;61.99;100887.22;4960301;28;122141;-86
2022/05/27 12:08:55;;;;;;;9.77;2.30;;;;;;;15.84;62.94;100888.81;4977024;28;123307;-86
2022/05/27 12:11:33;;;;;;;13.82;2.55;;;;;;;15.86;63.67;100876.06;4961071;28;119907;-85
2022/05/27 12:14:07;;;;;;;11.13;2.67;;;;;;;16.06;64.07;100885.59;4964320;28;123349;-84
2022/05/27 12:16:37;;;;;;;13.38;3.03;;;;;;;16.15;64.06;100877.19;4980051;28;121138;-85
2022/05/27 12:19:31;;;;;;;16.08;2.97;;;;;;;16.23;63.80;100872.75;4974150;28;121417;-86
2022/05/27 12:22:11;;;;;;;14.18;2.70;;;;;;;16.41;63.98;100866.94;4953541;28;123337;-85